sensor_id;sensor_type;location;lat;lon;timestamp;pressure;altitude;pressure_sealevel;temperature;humidity
46382;BME280;66809;52.974;-2.514;2023-12-20T00:01:39;1012.5782813342643;;;5.502256563649098;38.893715086625456
46382;BME280;66809;52.974;-2.514;2023-12-20T00:03:39;1012.5665220954829;;;5.5050879146719245;38.94505830853428
46382;BME280;66809;52.974;-2.514;2023-12-20T00:05:39;1012.5561197782572;;;5.5077428329778035;38.98135834139769
46382;BME280;66809;52.974;-2.514;2023-12-20T00:07:38;1012.5490670480708;;;5.506196930584919;38.99417336829801
46382;BME280;66809;52.974;-2.514;2023-12-20T00:09:39;1012.5412899411953;;;5.512654140840567;39.004177118915244
46382;BME280;66809;52.974;-2.514;2023-12-20T00:11:39;1012.5323789736753;;;5.517590653182261;39.01592748080332
46382;BME280;66809;52.974;-2.514;2023-12-20T00:13:39;1012.5237133473169;;;5.53011019539116;39.03263296991804
46382;BME280;66809;52.974;-2.514;2023-12-20T00:15:38;1012.5169242973043;;;5.534986070160974;39.04895539641461
46382;BME280;66809;52.974;-2.514;2023-12-20T00:17:39;1012.5112823093484;;;5.526181147184785;39.079252812979384
46382;BME280;66809;52.974;-2.514;2023-12-20T00:19:39;1012.5039593807558;;;5.534812554274307;39.116926018177956
46382;BME280;66809;52.974;-2.514;2023-12-20T00:21:39;1012.494096644433;;;5.538858490158292;39.16275635561973
46382;BME280;66809;52.974;-2.514;2023-12-20T00:23:38;1012.4848712810314;;;5.538739039288541;39.19693506554582
46382;BME280;66809;52.974;-2.514;2023-12-20T00:25:39;1012.475383709001;;;5.544591330691398;39.2366421556461
46382;BME280;66809;52.974;-2.514;2023-12-20T00:27:39;1012.4660632547124;;;5.542658953245679;39.27702430435724
46382;BME280;66809;52.974;-2.514;2023-12-20T00:29:38;1012.4594006368354;;;5.547924956365121;39.31458530136956
46382;BME280;66809;52.974;-2.514;2023-12-20T00:31:39;1012.4533440737596;;;5.5459103874143985;39.355443703836755
46382;BME280;66809;52.974;-2.514;2023-12-20T00:33:39;1012.448138543336;;;5.55746921825949;39.393483184015544
46382;BME280;66809;52.974;-2.514;2023-12-20T00:35:38;1012.4425620243687;;;5.562713667353835;39.42899794256251
46382;BME280;66809;52.974;-2.514;2023-12-20T00:37:39;1012.4353146732191;;;5.572284962488638;39.4728557588922
46382;BME280;66809;52.974;-2.514;2023-12-20T00:39:39;1012.4289853457542;;;5.585771426824076;39.51680870789195
46382;BME280;66809;52.974;-2.514;2023-12-20T00:41:38;1012.423187336815;;;5.595260538920373;39.55901353729442
46382;BME280;66809;52.974;-2.514;2023-12-20T00:43:39;1012.4167751691265;;;5.60723471261606;39.598214016904016
46382;BME280;66809;52.974;-2.514;2023-12-20T00:45:39;1012.4095181881463;;;5.614337760507894;39.62664272292543
46382;BME280;66809;52.974;-2.514;2023-12-20T00:47:39;1012.4033333721095;;;5.629578348982766;39.649443635211945
46382;BME280;66809;52.974;-2.514;2023-12-20T00:49:39;1012.3991603307153;;;5.635916842997811;39.68048795233053
46382;BME280;66809;52.974;-2.514;2023-12-20T00:51:39;1012.3943161931278;;;5.645597362930723;39.706581133559936
46382;BME280;66809;52.974;-2.514;2023-12-20T00:53:38;1012.3908462401786;;;5.65165020112819;39.727727016230276
46382;BME280;66809;52.974;-2.514;2023-12-20T00:55:39;1012.3898131336653;;;5.664706354987586;39.7453807880458
46382;BME280;66809;52.974;-2.514;2023-12-20T00:57:39;1012.3891318565883;;;5.669396300210773;39.76012908927032
46382;BME280;66809;52.974;-2.514;2023-12-20T00:59:39;1012.3863097872053;;;5.669643603239651;39.77332610872386
46382;BME280;66809;52.974;-2.514;2023-12-20T01:01:39;1012.3830355255836;;;5.678557750578578;39.79050299826504
46382;BME280;66809;52.974;-2.514;2023-12-20T01:03:39;1012.3805385645104;;;5.6925530678603975;39.80370155296898
46382;BME280;66809;52.974;-2.514;2023-12-20T01:05:39;1012.3771398393494;;;5.688735812360445;39.81340422909123
46382;BME280;66809;52.974;-2.514;2023-12-20T01:07:39;1012.3719688389514;;;5.709971525410742;39.83378454340768
46382;BME280;66809;52.974;-2.514;2023-12-20T01:09:39;1012.3660347576636;;;5.717074588932135;39.8633825430805
46382;BME280;66809;52.974;-2.514;2023-12-20T01:11:39;1012.3587876900103;;;5.726849383619654;39.87706045831087
46382;BME280;66809;52.974;-2.514;2023-12-20T01:13:39;1012.3512663599669;;;5.730822307396879;39.894425974749495
46382;BME280;66809;52.974;-2.514;2023-12-20T01:15:39;1012.3431643335413;;;5.74263214045551;39.89808724184502
46382;BME280;66809;52.974;-2.514;2023-12-20T01:17:39;1012.3332136222166;;;5.763377672008797;39.88991111045426
46382;BME280;66809;52.974;-2.514;2023-12-20T01:19:39;1012.3216760061686;;;5.773448375199138;39.89028685806155
46382;BME280;66809;52.974;-2.514;2023-12-20T01:21:39;1012.3104521057157;;;5.78550188118307;39.89328789296306
46382;BME280;66809;52.974;-2.514;2023-12-20T01:23:39;1012.2980479795035;;;5.800361547344782;39.906870495787416
46382;BME280;66809;52.974;-2.514;2023-12-20T01:25:39;1012.2871537767575;;;5.811106236866366;39.89733250418701
46382;BME280;66809;52.974;-2.514;2023-12-20T01:27:39;1012.2789903905983;;;5.836086227766555;39.89012753919026
46382;BME280;66809;52.974;-2.514;2023-12-20T01:29:39;1012.2703830121967;;;5.850206543280356;39.86524313445306
46382;BME280;66809;52.974;-2.514;2023-12-20T01:31:39;1012.2635345399746;;;5.86877790421647;39.84696501941887
46382;BME280;66809;52.974;-2.514;2023-12-20T01:33:39;1012.2569802205877;;;5.875542631499122;39.833551266872924
46382;BME280;66809;52.974;-2.514;2023-12-20T01:35:38;1012.2489837472144;;;5.892111427457621;39.8257742842946
46382;BME280;66809;52.974;-2.514;2023-12-20T01:37:39;1012.2424622812435;;;5.912336107175053;39.812361219514955
46382;BME280;66809;52.974;-2.514;2023-12-20T01:39:39;1012.2375968658688;;;5.940068204440603;39.80973364886858
46382;BME280;66809;52.974;-2.514;2023-12-20T01:41:39;1012.2335842738564;;;5.956853621446526;39.803603060205766
46382;BME280;66809;52.974;-2.514;2023-12-20T01:43:39;1012.2309754824888;;;5.966440639036449;39.7785224366314
46382;BME280;66809;52.974;-2.514;2023-12-20T01:45:39;1012.2270613056396;;;5.9779432441671245;39.77453331257153
46382;BME280;66809;52.974;-2.514;2023-12-20T01:47:39;1012.2233189031473;;;5.986339080171768;39.7656813744704
46382;BME280;66809;52.974;-2.514;2023-12-20T01:49:39;1012.2162287236853;;;6.007686611725011;39.765567987744674
46382;BME280;66809;52.974;-2.514;2023-12-20T01:51:39;1012.2080173436278;;;6.028652509947252;39.76991515631895
46382;BME280;66809;52.974;-2.514;2023-12-20T01:53:40;1012.1984219957216;;;6.049111323973489;39.771354804579325
46382;BME280;66809;52.974;-2.514;2023-12-20T01:55:40;1012.1866810798019;;;6.067457749998849;39.77745824686051
46382;BME280;66809;52.974;-2.514;2023-12-20T01:57:39;1012.1728659475406;;;6.09655462700793;39.775893030529154
46382;BME280;66809;52.974;-2.514;2023-12-20T01:59:39;1012.1579101913213;;;6.122657508591534;39.76986404885976
46382;BME280;66809;52.974;-2.514;2023-12-20T02:01:39;1012.1407821636699;;;6.136245578549396;39.75119878401336
46382;BME280;66809;52.974;-2.514;2023-12-20T02:03:39;1012.1223583218201;;;6.157108798035451;39.72874392079413
46382;BME280;66809;52.974;-2.514;2023-12-20T02:05:39;1012.1023173725655;;;6.178474271885148;39.711145540870945
46382;BME280;66809;52.974;-2.514;2023-12-20T02:07:39;1012.08215426481;;;6.18371107316928;39.690048688282964
46382;BME280;66809;52.974;-2.514;2023-12-20T02:09:39;1012.0606768316342;;;6.201783096699407;39.673813343585635
46382;BME280;66809;52.974;-2.514;2023-12-20T02:11:39;1012.0399509667852;;;6.212900381008868;39.67030842167652
46382;BME280;66809;52.974;-2.514;2023-12-20T02:13:38;1012.0212826537958;;;6.22685558929591;39.67215038349199
46382;BME280;66809;52.974;-2.514;2023-12-20T02:15:39;1012.0035680577679;;;6.231638003505293;39.664461745702155
46382;BME280;66809;52.974;-2.514;2023-12-20T02:17:40;1011.9895105271879;;;6.237880456962651;39.6571662993618
46382;BME280;66809;52.974;-2.514;2023-12-20T02:19:39;1011.9790773212899;;;6.246423120752346;39.64744700494448
46382;BME280;66809;52.974;-2.514;2023-12-20T02:21:39;1011.968103155225;;;6.2492376872336886;39.63364685135301
46382;BME280;66809;52.974;-2.514;2023-12-20T02:23:39;1011.9588344173202;;;6.2483807147305015;39.608867717505404
46382;BME280;66809;52.974;-2.514;2023-12-20T02:25:38;1011.9482728409516;;;6.249990850661401;39.61498813394062
46382;BME280;66809;52.974;-2.514;2023-12-20T02:27:39;1011.9366457013512;;;6.255418346628656;39.62392537961831
46382;BME280;66809;52.974;-2.514;2023-12-20T02:29:38;1011.9256104092084;;;6.264752633771488;39.649965595868395
46382;BME280;66809;52.974;-2.514;2023-12-20T02:31:39;1011.9126428781416;;;6.275884886992114;39.674839496549154
46382;BME280;66809;52.974;-2.514;2023-12-20T02:33:39;1011.9011396684987;;;6.2875212478301;39.693982789804956
46382;BME280;66809;52.974;-2.514;2023-12-20T02:35:38;1011.892598845727;;;6.290529800729273;39.70661604446456
46382;BME280;66809;52.974;-2.514;2023-12-20T02:37:39;1011.88377378799;;;6.300031014852598;39.72459549198505
46382;BME280;66809;52.974;-2.514;2023-12-20T02:39:39;1011.8750837960336;;;6.3126354560841484;39.73596774970311
46382;BME280;66809;52.974;-2.514;2023-12-20T02:41:38;1011.8652803550075;;;6.331144440009895;39.75900616286156
46382;BME280;66809;52.974;-2.514;2023-12-20T02:43:39;1011.8539455008963;;;6.350030384583477;39.79691154291133
46382;BME280;66809;52.974;-2.514;2023-12-20T02:45:39;1011.8458679312117;;;6.3683366190363655;39.81392402424317
46382;BME280;66809;52.974;-2.514;2023-12-20T02:47:38;1011.8378044433617;;;6.381477674042101;39.83988147912528
46382;BME280;66809;52.974;-2.514;2023-12-20T02:49:39;1011.833430145211;;;6.409927030160673;39.86360413896276
46382;BME280;66809;52.974;-2.514;2023-12-20T02:51:39;1011.8307163790626;;;6.424906201459365;39.88654837128293
46382;BME280;66809;52.974;-2.514;2023-12-20T02:53:38;1011.8273571657529;;;6.443983545387727;39.90317299122346
46382;BME280;66809;52.974;-2.514;2023-12-20T02:55:39;1011.824258838189;;;6.449042147347877;39.892560378767165
46382;BME280;66809;52.974;-2.514;2023-12-20T02:57:39;1011.8217746197886;;;6.452904717824183;39.89226120483293
46382;BME280;66809;52.974;-2.514;2023-12-20T02:59:39;1011.8181599244997;;;6.459853704981686;39.886026962512666
46382;BME280;66809;52.974;-2.514;2023-12-20T03:01:43;1011.8148061107945;;;6.467138753985172;39.884744104559786
46382;BME280;66809;52.974;-2.514;2023-12-20T03:03:38;1011.8100506203428;;;6.463468707122556;39.892311904610224
46382;BME280;66809;52.974;-2.514;2023-12-20T03:05:39;1011.8054278857594;;;6.48207850758555;39.90590761135012
46382;BME280;66809;52.974;-2.514;2023-12-20T03:07:39;1011.8005833849961;;;6.496556532806433;39.92718625013698
46382;BME280;66809;52.974;-2.514;2023-12-20T03:09:38;1011.7965270374276;;;6.510325830879338;39.94992802997219
46382;BME280;66809;52.974;-2.514;2023-12-20T03:11:39;1011.7924112058832;;;6.518014153622798;39.962561194014214
46382;BME280;66809;52.974;-2.514;2023-12-20T03:13:39;1011.7871086571639;;;6.525820104392369;39.96897468039088
46382;BME280;66809;52.974;-2.514;2023-12-20T03:15:39;1011.7807437017998;;;6.542588813353122;40.00114065245504
46382;BME280;66809;52.974;-2.514;2023-12-20T03:17:39;1011.7728129341789;;;6.562214099997652;40.026009290468615
46382;BME280;66809;52.974;-2.514;2023-12-20T03:19:39;1011.7622764269993;;;6.5694578745201575;40.05059163679429
46382;BME280;66809;52.974;-2.514;2023-12-20T03:21:39;1011.7502142899963;;;6.574735653171413;40.05902822870636
46382;BME280;66809;52.974;-2.514;2023-12-20T03:23:40;1011.7386583742515;;;6.590985315876842;40.07971454814946
46382;BME280;66809;52.974;-2.514;2023-12-20T03:25:39;1011.727351654154;;;6.6108320460258305;40.09146684608576
46382;BME280;66809;52.974;-2.514;2023-12-20T03:27:38;1011.7172740628531;;;6.617477449285226;40.09991775955449
46382;BME280;66809;52.974;-2.514;2023-12-20T03:29:39;1011.7077813359198;;;6.633775686555428;40.10866498128281
46382;BME280;66809;52.974;-2.514;2023-12-20T03:31:39;1011.6999644464215;;;6.6462679423057365;40.10476949657661
46382;BME280;66809;52.974;-2.514;2023-12-20T03:33:38;1011.6921841065905;;;6.6722231010005695;40.09902948347266
46382;BME280;66809;52.974;-2.514;2023-12-20T03:35:39;1011.6829421342893;;;6.6779549577503365;40.09601366674027
46382;BME280;66809;52.974;-2.514;2023-12-20T03:37:39;1011.6744267179688;;;6.684340273118768;40.091928273758136
46382;BME280;66809;52.974;-2.514;2023-12-20T03:39:39;1011.6663769759065;;;6.681634920351388;40.06868809501066
46382;BME280;66809;52.974;-2.514;2023-12-20T03:41:38;1011.6585743783415;;;6.6677655450693525;40.04194804436066
46382;BME280;66809;52.974;-2.514;2023-12-20T03:43:39;1011.6535368268521;;;6.660228439636262;40.026782157515264
46382;BME280;66809;52.974;-2.514;2023-12-20T03:45:39;1011.6474352952632;;;6.653055590163621;40.01229459087272
46382;BME280;66809;52.974;-2.514;2023-12-20T03:47:38;1011.6423078709536;;;6.64613106479618;39.995766214210185
46382;BME280;66809;52.974;-2.514;2023-12-20T03:49:39;1011.6358299312302;;;6.616321764267331;39.99692325781059
46382;BME280;66809;52.974;-2.514;2023-12-20T03:51:39;1011.6298975653885;;;6.591319364572052;39.991478129549
46382;BME280;66809;52.974;-2.514;2023-12-20T03:53:39;1011.624016747547;;;6.5659808922694065;39.99205878338098
46382;BME280;66809;52.974;-2.514;2023-12-20T03:55:39;1011.6182882400211;;;6.553108703927986;40.02308218498946
46382;BME280;66809;52.974;-2.514;2023-12-20T03:57:39;1011.6111997457963;;;6.541961854197705;40.03310294348016
46382;BME280;66809;52.974;-2.514;2023-12-20T03:59:39;1011.6043587289839;;;6.5244183251241985;40.04789225030375
46382;BME280;66809;52.974;-2.514;2023-12-20T04:01:38;1011.5989078676163;;;6.505850941398162;40.07687209061625
46382;BME280;66809;52.974;-2.514;2023-12-20T04:03:39;1011.5977542701871;;;6.480478915464616;40.11487328730298
46382;BME280;66809;52.974;-2.514;2023-12-20T04:05:39;1011.5959042665297;;;6.456750631244061;40.15286800231227
46382;BME280;66809;52.974;-2.514;2023-12-20T04:07:38;1011.5954034944994;;;6.439181919948322;40.17667584342642
46382;BME280;66809;52.974;-2.514;2023-12-20T04:09:40;1011.5947027487041;;;6.417531833404797;40.1903735884568
46382;BME280;66809;52.974;-2.514;2023-12-20T04:11:39;1011.5905466674815;;;6.405928319626963;40.20961252650556
46382;BME280;66809;52.974;-2.514;2023-12-20T04:13:39;1011.5817715960717;;;6.389787886783767;40.2111679508773
46382;BME280;66809;52.974;-2.514;2023-12-20T04:15:38;1011.5705435167389;;;6.368171401225916;40.22312081036903
46382;BME280;66809;52.974;-2.514;2023-12-20T04:17:39;1011.5588995496506;;;6.338975453762154;40.236440010471945
46382;BME280;66809;52.974;-2.514;2023-12-20T04:19:39;1011.547507639595;;;6.319390313859397;40.24188047681959
46382;BME280;66809;52.974;-2.514;2023-12-20T04:21:38;1011.5383598094618;;;6.312264163015301;40.25870843610969
46382;BME280;66809;52.974;-2.514;2023-12-20T04:23:39;1011.5264589728902;;;6.2870812319050104;40.26960253167775
46382;BME280;66809;52.974;-2.514;2023-12-20T04:25:39;1011.5125582614585;;;6.2759902030077095;40.2753427873017
46382;BME280;66809;52.974;-2.514;2023-12-20T04:27:39;1011.4982222553579;;;6.265369667109021;40.27369528434747
46382;BME280;66809;52.974;-2.514;2023-12-20T04:29:39;1011.4819063970058;;;6.261285654602123;40.27398753244339
46382;BME280;66809;52.974;-2.514;2023-12-20T04:31:39;1011.4636858251823;;;6.241120395036449;40.272730349151374
46382;BME280;66809;52.974;-2.514;2023-12-20T04:33:39;1011.4457014621203;;;6.235373607895237;40.27146757243666
46382;BME280;66809;52.974;-2.514;2023-12-20T04:35:39;1011.4266233993053;;;6.244792286478069;40.26047911051034
46382;BME280;66809;52.974;-2.514;2023-12-20T04:37:39;1011.4078495565657;;;6.246506241526939;40.249875612236245
46382;BME280;66809;52.974;-2.514;2023-12-20T04:39:39;1011.3897511024536;;;6.2532181215432425;40.24606617544385
46382;BME280;66809;52.974;-2.514;2023-12-20T04:41:38;1011.3750787687615;;;6.264292386052949;40.2355345202978
46382;BME280;66809;52.974;-2.514;2023-12-20T04:43:39;1011.3607152451582;;;6.2711676374818435;40.21187644337228
46382;BME280;66809;52.974;-2.514;2023-12-20T04:45:39;1011.3451650755877;;;6.268083847048531;40.18570424939735
46382;BME280;66809;52.974;-2.514;2023-12-20T04:47:38;1011.3288986298413;;;6.282047484739751;40.16158345220689
46382;BME280;66809;52.974;-2.514;2023-12-20T04:49:39;1011.312689540208;;;6.295910299394766;40.12726719420492
46382;BME280;66809;52.974;-2.514;2023-12-20T04:51:39;1011.2957406513932;;;6.291280968289564;40.11376223782223
46382;BME280;66809;52.974;-2.514;2023-12-20T04:53:39;1011.2828908309507;;;6.294348721612811;40.109584310103166
46382;BME280;66809;52.974;-2.514;2023-12-20T04:55:39;1011.2667354998749;;;6.292231493892326;40.09471693709918
46382;BME280;66809;52.974;-2.514;2023-12-20T04:57:39;1011.2540836298165;;;6.286896417256899;40.08791542639039
46382;BME280;66809;52.974;-2.514;2023-12-20T04:59:39;1011.2435412751544;;;6.292350249209437;40.08781760939883
46382;BME280;66809;52.974;-2.514;2023-12-20T05:01:39;1011.2315842378989;;;6.310857316289064;40.075188486207324
46382;BME280;66809;52.974;-2.514;2023-12-20T05:03:39;1011.2161505368458;;;6.312965000244755;40.05217016189912
46382;BME280;66809;52.974;-2.514;2023-12-20T05:05:39;1011.2004992119946;;;6.317461758038735;40.01982368026165
46382;BME280;66809;52.974;-2.514;2023-12-20T05:07:39;1011.1844812484686;;;6.322561582790754;39.99670371694999
46382;BME280;66809;52.974;-2.514;2023-12-20T05:09:39;1011.1686375888299;;;6.316562785964856;39.98805587581747
46382;BME280;66809;52.974;-2.514;2023-12-20T05:11:39;1011.1539903370939;;;6.289601824866962;39.99734656323871
46382;BME280;66809;52.974;-2.514;2023-12-20T05:13:39;1011.1422197461886;;;6.266488836555493;40.0285894487834
46382;BME280;66809;52.974;-2.514;2023-12-20T05:15:39;1011.1369582732449;;;6.253481204261983;40.04905900977405
46382;BME280;66809;52.974;-2.514;2023-12-20T05:17:39;1011.1313557728583;;;6.252087669028015;40.06682596235522
46382;BME280;66809;52.974;-2.514;2023-12-20T05:19:39;1011.1270081753976;;;6.249492693840463;40.079058126530505
46382;BME280;66809;52.974;-2.514;2023-12-20T05:21:40;1011.1215153352764;;;6.248934485853555;40.09886530593033
46382;BME280;66809;52.974;-2.514;2023-12-20T05:23:39;1011.1174171670489;;;6.253507278820444;40.11877629247463
46382;BME280;66809;52.974;-2.514;2023-12-20T05:25:39;1011.115810656379;;;6.23218564729728;40.13538039852405
46382;BME280;66809;52.974;-2.514;2023-12-20T05:27:39;1011.1118965642232;;;6.2293638088015095;40.15451989796406
46382;BME280;66809;52.974;-2.514;2023-12-20T05:29:39;1011.106315647822;;;6.214192185238333;40.162390737341006
46382;BME280;66809;52.974;-2.514;2023-12-20T05:31:39;1011.100525144547;;;6.221594471935661;40.17842860583337
46382;BME280;66809;52.974;-2.514;2023-12-20T05:33:39;1011.09359388804;;;6.20417771768207;40.192136258294425
46382;BME280;66809;52.974;-2.514;2023-12-20T05:35:39;1011.0880108099474;;;6.188893873880435;40.20672379248752
46382;BME280;66809;52.974;-2.514;2023-12-20T05:37:39;1011.0808638119285;;;6.17303141585859;40.21771868621836
46382;BME280;66809;52.974;-2.514;2023-12-20T05:39:39;1011.0734550637306;;;6.145296199844969;40.23942092468458
46382;BME280;66809;52.974;-2.514;2023-12-20T05:41:39;1011.0619871041193;;;6.1417239181242;40.2676490303805
46382;BME280;66809;52.974;-2.514;2023-12-20T05:43:38;1011.0490419037831;;;6.138413979630987;40.302291011417275
46382;BME280;66809;52.974;-2.514;2023-12-20T05:45:39;1011.036970844728;;;6.136976527233833;40.335850793308715
46382;BME280;66809;52.974;-2.514;2023-12-20T05:47:39;1011.0248997602271;;;6.127160342322251;40.376102227979985
46382;BME280;66809;52.974;-2.514;2023-12-20T05:49:40;1011.0169216787593;;;6.118481374833917;40.417221693059886
46382;BME280;66809;52.974;-2.514;2023-12-20T05:51:39;1011.0102836708664;;;6.123697692530148;40.44588587464828
46382;BME280;66809;52.974;-2.514;2023-12-20T05:53:39;1011.0016242902906;;;6.125761518063466;40.47473908206279
46382;BME280;66809;52.974;-2.514;2023-12-20T05:55:39;1010.9989619396473;;;6.122291619501423;40.51544110322951
46382;BME280;66809;52.974;-2.514;2023-12-20T05:57:38;1010.993305944661;;;6.129481613436666;40.556925440326275
46382;BME280;66809;52.974;-2.514;2023-12-20T05:59:39;1010.9889235216924;;;6.128187752870835;40.59607023918624
46382;BME280;66809;52.974;-2.514;2023-12-20T06:01:39;1010.9835637334139;;;6.11965348607566;40.64037150997938
46382;BME280;66809;52.974;-2.514;2023-12-20T06:03:42;1010.9781562846342;;;6.134921632298699;40.67719618606806
46382;BME280;66809;52.974;-2.514;2023-12-20T06:05:38;1010.9748716115707;;;6.124897277335331;40.72013536714056
46382;BME280;66809;52.974;-2.514;2023-12-20T06:07:39;1010.971292069232;;;6.1277099889896975;40.76579183000647
46382;BME280;66809;52.974;-2.514;2023-12-20T06:09:39;1010.9663461380896;;;6.131052714885893;40.79581230269233
46382;BME280;66809;52.974;-2.514;2023-12-20T06:11:38;1010.9603221738449;;;6.151838434421736;40.80642490783448
46382;BME280;66809;52.974;-2.514;2023-12-20T06:13:39;1010.9531220445017;;;6.175363105583052;40.8092772243966
46382;BME280;66809;52.974;-2.514;2023-12-20T06:15:39;1010.9413777458308;;;6.190395544876951;40.808430763121734
46382;BME280;66809;52.974;-2.514;2023-12-20T06:17:39;1010.9299729110522;;;6.204458110935631;40.81562881867963
46382;BME280;66809;52.974;-2.514;2023-12-20T06:19:39;1010.9185558189122;;;6.217371498383705;40.82156575509645
46382;BME280;66809;52.974;-2.514;2023-12-20T06:21:39;1010.9050350809578;;;6.2155929013491855;40.820219418884065
46382;BME280;66809;52.974;-2.514;2023-12-20T06:23:39;1010.8935989362851;;;6.225019598924002;40.817896479582515
46382;BME280;66809;52.974;-2.514;2023-12-20T06:25:38;1010.8819333695767;;;6.228076668513414;40.81887484719081
46382;BME280;66809;52.974;-2.514;2023-12-20T06:27:39;1010.8719584499491;;;6.219916355048218;40.81839120944773
46382;BME280;66809;52.974;-2.514;2023-12-20T06:29:39;1010.8679442058179;;;6.213714769867852;40.82179215770264
46382;BME280;66809;52.974;-2.514;2023-12-20T06:31:39;1010.8656166710526;;;6.203616656202638;40.826651034061946
46382;BME280;66809;52.974;-2.514;2023-12-20T06:33:39;1010.8619888841753;;;6.199750744600916;40.831704811653275
46382;BME280;66809;52.974;-2.514;2023-12-20T06:35:38;1010.8563870030986;;;6.1947506042043425;40.83860637418345
46382;BME280;66809;52.974;-2.514;2023-12-20T06:37:39;1010.854107493676;;;6.196591702564598;40.84754809066945
46382;BME280;66809;52.974;-2.514;2023-12-20T06:39:39;1010.8506487551715;;;6.206978461381843;40.854643454216976
46382;BME280;66809;52.974;-2.514;2023-12-20T06:41:39;1010.8501008371951;;;6.202902510106635;40.86018446552503
46382;BME280;66809;52.974;-2.514;2023-12-20T06:43:39;1010.8491466158426;;;6.190306100860071;40.85969830770572
46382;BME280;66809;52.974;-2.514;2023-12-20T06:45:39;1010.8489587796105;;;6.198885371155204;40.8628089465293
46382;BME280;66809;52.974;-2.514;2023-12-20T06:47:39;1010.8492486714258;;;6.200962456591579;40.85416069691118
46382;BME280;66809;52.974;-2.514;2023-12-20T06:49:39;1010.8486252384696;;;6.198674946204195;40.83754352661538
46382;BME280;66809;52.974;-2.514;2023-12-20T06:51:39;1010.8510686402794;;;6.209345121648257;40.82043812359392
46382;BME280;66809;52.974;-2.514;2023-12-20T06:53:39;1010.8581012807914;;;6.213766276678849;40.79207028175508
46382;BME280;66809;52.974;-2.514;2023-12-20T06:55:39;1010.8640694127057;;;6.2235867391578354;40.75622668493692
46382;BME280;66809;52.974;-2.514;2023-12-20T06:57:39;1010.8715897178253;;;6.228872154572046;40.72300206378122
46382;BME280;66809;52.974;-2.514;2023-12-20T06:59:39;1010.8789658104233;;;6.245043208902495;40.68327205096145
46382;BME280;66809;52.974;-2.514;2023-12-20T07:01:38;1010.8852516408301;;;6.2561686016208675;40.64051722155408
46382;BME280;66809;52.974;-2.514;2023-12-20T07:03:39;1010.8921018745962;;;6.270478281936297;40.59706619615339
46382;BME280;66809;52.974;-2.514;2023-12-20T07:05:39;1010.8976469878853;;;6.3092343537501865;40.54846411979634
46382;BME280;66809;52.974;-2.514;2023-12-20T07:07:39;1010.9017499589372;;;6.331099072592806;40.489743933724455
46382;BME280;66809;52.974;-2.514;2023-12-20T07:09:39;1010.9075721878755;;;6.367076065267297;40.43471030110036
46382;BME280;66809;52.974;-2.514;2023-12-20T07:11:39;1010.9154832902101;;;6.410370954169963;40.37482208816785
46382;BME280;66809;52.974;-2.514;2023-12-20T07:13:39;1010.9254786500092;;;6.461335873928818;40.31540702477666